createdAt,value
2022-11-29T00:02:48.452Z,101069.28
2022-11-29T00:05:50.648Z,101068.72
2022-11-29T00:09:08.320Z,101064.47
2022-11-29T00:12:23.357Z,101064.94
2022-11-29T00:15:25.309Z,101058.25
2022-11-29T00:18:41.326Z,101048.72
2022-11-29T00:21:43.272Z,101044.84
2022-11-29T00:24:58.353Z,101049.94
2022-11-29T00:28:06.908Z,101052.75
2022-11-29T00:31:29.336Z,101039.78
2022-11-29T00:34:38.022Z,101043.44
2022-11-29T00:37:53.323Z,101045.25
2022-11-29T00:41:01.972Z,101035.31
2022-11-29T00:44:13.965Z,101037.94
2022-11-29T00:47:31.332Z,101033.97
2022-11-29T00:50:39.354Z,101026.41
2022-11-29T00:53:48.091Z,101025.97
2022-11-29T00:56:56.304Z,101028.81
2022-11-29T01:00:05.860Z,101028.41
2022-11-29T01:03:27.341Z,101022.94
2022-11-29T01:06:36.002Z,101022.91
2022-11-29T01:09:44.324Z,101013.63
2022-11-29T01:12:59.348Z,101024.16
2022-11-29T01:16:08.334Z,101024.53
2022-11-29T01:19:17.045Z,101017.84
2022-11-29T01:22:32.335Z,101018.25
2022-11-29T01:25:47.332Z,101016.63
2022-11-29T01:29:09.326Z,101019.91
2022-11-29T01:32:24.328Z,101008.53
2022-11-29T01:35:26.210Z,101020.91
2022-11-29T01:38:42.325Z,101013.97
2022-11-29T01:41:50.326Z,101016.44
2022-11-29T01:45:03.737Z,101013.56
2022-11-29T01:48:13.354Z,101015.22
2022-11-29T01:51:22.632Z,101022.69
2022-11-29T01:54:32.320Z,101017.31
2022-11-29T01:57:43.098Z,101003.34
2022-11-29T02:00:52.357Z,101016.72
2022-11-29T02:04:15.317Z,101015.50
2022-11-29T02:07:17.463Z,101020.56
2022-11-29T02:10:46.323Z,101020.75
2022-11-29T02:13:48.197Z,101027.06
2022-11-29T02:17:27.327Z,101024.63
2022-11-29T02:20:42.689Z,101018.12
2022-11-29T02:24:15.312Z,101023.16
2022-11-29T02:27:55.334Z,101023.78
2022-11-29T02:31:28.221Z,101027.84
2022-11-29T02:35:04.350Z,101024.59
2022-11-29T02:38:30.441Z,101032.78
2022-11-29T02:41:48.317Z,101037.63
2022-11-29T02:45:17.847Z,101043.72
2022-11-29T02:48:55.328Z,101041.28
2022-11-29T02:52:13.459Z,101042.09
2022-11-29T02:55:40.325Z,101023.25
2022-11-29T02:58:51.323Z,101031.75
2022-11-29T03:02:22.378Z,101043.72
2022-11-29T03:05:42.616Z,101038.44
2022-11-29T03:08:59.314Z,101031.53
2022-11-29T03:12:32.342Z,101036.81
2022-11-29T03:16:03.369Z,101033.56
2022-11-29T03:19:41.500Z,101035.44
2022-11-29T03:23:13.291Z,101034.00
2022-11-29T03:26:27.303Z,101036.47
2022-11-29T03:30:02.334Z,101031.97
2022-11-29T03:33:15.449Z,101036.03
2022-11-29T03:37:02.301Z,101040.06
2022-11-29T03:40:15.315Z,101036.44
2022-11-29T03:43:33.566Z,101039.69
2022-11-29T03:46:50.299Z,101026.09
2022-11-29T03:50:23.260Z,101049.00
2022-11-29T03:54:13.324Z,101055.72
2022-11-29T03:57:34.034Z,101050.66
2022-11-29T04:01:02.288Z,101057.16
2022-11-29T04:05:07.309Z,101051.09
2022-11-29T04:08:28.033Z,101053.53
2022-11-29T04:11:54.305Z,101060.00
2022-11-29T04:15:33.839Z,101056.16
2022-11-29T04:18:42.334Z,101064.47
2022-11-29T04:21:53.760Z,101060.63
2022-11-29T04:25:29.326Z,101062.25
2022-11-29T04:28:59.287Z,101063.66
2022-11-29T04:32:23.364Z,101065.31
2022-11-29T04:35:28.176Z,101066.94
2022-11-29T04:39:19.308Z,101071.41
2022-11-29T04:43:20.318Z,101073.00
2022-11-29T04:46:53.295Z,101071.19
2022-11-29T04:50:27.300Z,101074.44
2022-11-29T04:53:29.096Z,101071.41
2022-11-29T04:56:54.322Z,101079.09
2022-11-29T05:00:16.279Z,101077.31
2022-11-29T05:03:39.261Z,101085.22
2022-11-29T05:07:15.358Z,101095.78
2022-11-29T05:10:51.304Z,101100.63
2022-11-29T05:14:24.673Z,101102.88
2022-11-29T05:18:18.314Z,101106.94
2022-11-29T05:21:50.248Z,101106.91
2022-11-29T05:25:27.356Z,101105.53
2022-11-29T05:29:03.301Z,101114.44
2022-11-29T05:32:27.342Z,101112.41
2022-11-29T05:36:10.293Z,101110.97
2022-11-29T05:39:40.280Z,101101.66
2022-11-29T05:43:18.298Z,101110.41
2022-11-29T05:46:49.808Z,101108.34
2022-11-29T05:50:16.285Z,101106.31
2022-11-29T05:53:56.274Z,101104.69
2022-11-29T05:57:22.012Z,101112.00
2022-11-29T06:00:31.262Z,101089.28
2022-11-29T06:04:14.446Z,101099.62
2022-11-29T06:07:53.125Z,101114.84
2022-11-29T06:11:17.279Z,101119.91
2022-11-29T06:14:55.306Z,101121.94
2022-11-29T06:18:10.292Z,101125.00
2022-11-29T06:21:48.138Z,101124.81
2022-11-29T06:25:28.277Z,101124.81
2022-11-29T06:28:58.483Z,101137.19
2022-11-29T06:32:39.596Z,101133.31
2022-11-29T06:36:12.590Z,101127.25
2022-11-29T06:39:28.281Z,101138.78
2022-11-29T06:42:43.274Z,101134.75
2022-11-29T06:46:16.313Z,101144.06
2022-11-29T06:49:35.263Z,101147.75
2022-11-29T06:53:02.308Z,101146.91
2022-11-29T06:56:40.900Z,101146.72
2022-11-29T07:00:12.278Z,101143.84
2022-11-29T07:03:40.273Z,101144.50
2022-11-29T07:06:55.295Z,101145.87
2022-11-29T07:10:13.500Z,101146.91
2022-11-29T07:13:30.284Z,101147.53
2022-11-29T07:16:57.594Z,101150.16
2022-11-29T07:20:24.328Z,101153.00
2022-11-29T07:23:49.943Z,101153.00
2022-11-29T07:27:14.277Z,101156.69
2022-11-29T07:30:42.265Z,101153.22
2022-11-29T07:34:18.285Z,101151.38
2022-11-29T07:37:58.270Z,101152.59
2022-11-29T07:41:20.088Z,101149.34
2022-11-29T07:44:44.613Z,101150.38
2022-11-29T07:47:59.290Z,101156.25
2022-11-29T07:51:08.623Z,101157.03
2022-11-29T07:54:25.306Z,101173.69
2022-11-29T07:57:27.279Z,101161.91
2022-11-29T08:00:42.316Z,101158.66
2022-11-29T08:03:57.538Z,101162.72
2022-11-29T08:07:12.277Z,101162.69
2022-11-29T08:10:21.124Z,101162.31
2022-11-29T08:13:29.303Z,101153.53
2022-11-29T08:16:44.286Z,101161.69
2022-11-29T08:19:53.224Z,101159.00
2022-11-29T08:23:06.340Z,101142.37
2022-11-29T08:26:16.140Z,101161.28
2022-11-29T08:29:25.254Z,101159.09
2022-11-29T08:32:41.289Z,101153.59
2022-11-29T08:35:49.257Z,101161.09
2022-11-29T08:39:09.185Z,101160.91
2022-11-29T08:42:24.285Z,101164.12
2022-11-29T08:45:32.508Z,101163.09
2022-11-29T08:48:47.270Z,101151.94
2022-11-29T08:51:55.867Z,101164.72
2022-11-29T08:55:05.253Z,101165.75
2022-11-29T08:58:22.727Z,101161.09
2022-11-29T09:01:24.829Z,101158.22
2022-11-29T09:04:46.436Z,101147.88
2022-11-29T09:07:56.315Z,101151.31
2022-11-29T09:11:16.757Z,101152.88
2022-11-29T09:14:31.260Z,101156.31
2022-11-29T09:17:46.283Z,101154.09
2022-11-29T09:20:54.896Z,101151.22
2022-11-29T09:24:07.278Z,101155.22
2022-11-29T09:27:15.829Z,101155.22
2022-11-29T09:30:25.367Z,101131.47
2022-11-29T09:33:34.891Z,101151.59
2022-11-29T09:36:49.316Z,101158.09
2022-11-29T09:39:51.207Z,101136.94
2022-11-29T09:43:14.272Z,101154.34
2022-11-29T09:46:29.278Z,101150.06
2022-11-29T09:50:00.044Z,101141.72
2022-11-29T09:53:15.260Z,101141.09
2022-11-29T09:56:48.288Z,101137.66
2022-11-29T10:00:05.542Z,101130.72
2022-11-29T10:03:27.277Z,101124.94
2022-11-29T10:06:40.854Z,101133.44
2022-11-29T10:10:04.261Z,101114.22
2022-11-29T10:13:28.287Z,101120.88
2022-11-29T10:16:45.562Z,101118.84
2022-11-29T10:20:09.721Z,101113.62
2022-11-29T10:23:23.687Z,101116.09
2022-11-29T10:26:39.313Z,101121.53
2022-11-29T10:29:41.265Z,101121.75
2022-11-29T10:33:06.250Z,101109.47
2022-11-29T10:36:27.934Z,101118.84
2022-11-29T10:39:44.245Z,101105.47
2022-11-29T10:42:52.906Z,101109.50
2022-11-29T10:46:07.302Z,101104.56
2022-11-29T10:49:24.287Z,101104.28
2022-11-29T10:52:34.069Z,101099.44
2022-11-29T10:56:00.263Z,101096.34
2022-11-29T10:59:12.251Z,101098.16
2022-11-29T11:02:35.572Z,101093.53
2022-11-29T11:06:25.244Z,101081.56
2022-11-29T11:09:40.238Z,101090.03
2022-11-29T11:13:27.278Z,101086.75
2022-11-29T11:16:32.860Z,101097.69
2022-11-29T11:20:08.249Z,101092.56
2022-11-29T11:23:25.561Z,101087.78
2022-11-29T11:26:34.533Z,101095.53
2022-11-29T11:29:44.615Z,101087.72
2022-11-29T11:33:36.262Z,101089.91
2022-11-29T11:36:51.249Z,101089.34
2022-11-29T11:40:21.985Z,101090.53
2022-11-29T11:43:31.232Z,101084.75
2022-11-29T11:46:49.395Z,101093.44
2022-11-29T11:50:07.252Z,101089.78
2022-11-29T11:53:30.282Z,101092.69
2022-11-29T11:56:45.261Z,101091.28
2022-11-29T12:00:00.634Z,101077.53
2022-11-29T12:03:24.415Z,101084.37
2022-11-29T12:06:38.986Z,101081.13
2022-11-29T12:09:55.251Z,101090.94
2022-11-29T12:13:04.959Z,101083.91
2022-11-29T12:16:29.253Z,101088.72
2022-11-29T12:19:49.875Z,101086.00
2022-11-29T12:23:23.313Z,101085.78
2022-11-29T12:26:56.915Z,101077.87
2022-11-29T12:30:17.825Z,101076.44
2022-11-29T12:33:46.265Z,101080.94
2022-11-29T12:37:07.255Z,101074.22
2022-11-29T12:40:31.873Z,101075.13
2022-11-29T12:44:11.262Z,101066.63
2022-11-29T12:47:38.339Z,101077.47
2022-11-29T12:51:01.831Z,101075.25
2022-11-29T12:54:49.244Z,101070.75
2022-11-29T12:58:23.244Z,101070.00
2022-11-29T13:01:43.307Z,101075.03
2022-11-29T13:05:27.277Z,101069.44
2022-11-29T13:08:48.145Z,101068.34
2022-11-29T13:12:07.247Z,101063.28
2022-11-29T13:15:23.220Z,101068.41
2022-11-29T13:18:33.872Z,101067.91
2022-11-29T13:22:07.257Z,101070.69
2022-11-29T13:25:24.902Z,101065.78
2022-11-29T13:28:45.243Z,101072.31
2022-11-29T13:32:00.241Z,101063.03
2022-11-29T13:35:28.248Z,101058.62
2022-11-29T13:39:02.035Z,101072.06
2022-11-29T13:42:49.203Z,101064.63
2022-11-29T13:45:55.333Z,101064.44
2022-11-29T13:49:10.331Z,101069.75
2022-11-29T13:52:27.408Z,101067.91
2022-11-29T13:55:52.212Z,101069.28
2022-11-29T13:59:12.236Z,101076.06
2022-11-29T14:02:30.487Z,101066.34
2022-11-29T14:05:46.693Z,101081.16
2022-11-29T14:09:23.294Z,101075.78
2022-11-29T14:12:43.630Z,101072.91
2022-11-29T14:16:05.441Z,101077.28
2022-11-29T14:19:26.713Z,101067.06
2022-11-29T14:23:11.238Z,101068.47
2022-11-29T14:26:32.244Z,101059.63
2022-11-29T14:29:49.569Z,101062.72
2022-11-29T14:33:15.240Z,101059.63
2022-11-29T14:36:50.294Z,101066.78
2022-11-29T14:40:11.508Z,101066.03
2022-11-29T14:43:33.692Z,101072.25
2022-11-29T14:46:49.360Z,101077.84
2022-11-29T14:50:07.230Z,101067.03
2022-11-29T14:53:46.258Z,101072.91
2022-11-29T14:57:01.250Z,101075.84
2022-11-29T15:00:04.589Z,101079.59
2022-11-29T15:03:22.228Z,101067.94
2022-11-29T15:06:44.387Z,101077.34
2022-11-29T15:09:57.226Z,101072.13
2022-11-29T15:13:10.653Z,101072.06
2022-11-29T15:16:36.363Z,101082.75
2022-11-29T15:20:09.186Z,101076.63
2022-11-29T15:23:20.137Z,101067.00
2022-11-29T15:26:35.259Z,101078.34
2022-11-29T15:29:37.155Z,101075.97
2022-11-29T15:33:14.218Z,101075.53
2022-11-29T15:36:23.363Z,101068.16
2022-11-29T15:39:43.229Z,101075.88
2022-11-29T15:43:07.267Z,101057.87
2022-11-29T15:46:24.643Z,101064.03
2022-11-29T15:49:35.269Z,101067.28
2022-11-29T15:52:44.136Z,101072.59
2022-11-29T15:56:03.245Z,101065.44
2022-11-29T15:59:24.487Z,101067.87
2022-11-29T16:02:42.219Z,101074.44
2022-11-29T16:06:15.259Z,101071.41
2022-11-29T16:09:46.248Z,101073.25
2022-11-29T16:13:13.217Z,101090.66
2022-11-29T16:16:23.658Z,101086.12
2022-11-29T16:19:36.267Z,101080.59
2022-11-29T16:22:45.792Z,101086.06
2022-11-29T16:26:09.209Z,101078.28
2022-11-29T16:29:36.060Z,101086.81
2022-11-29T16:32:52.220Z,101080.34
2022-11-29T16:36:31.582Z,101089.72
2022-11-29T16:39:37.890Z,101087.87
2022-11-29T16:43:14.207Z,101094.34
2022-11-29T16:46:29.229Z,101097.13
2022-11-29T16:49:44.222Z,101105.25
2022-11-29T16:52:56.597Z,101107.38
2022-11-29T16:56:06.244Z,101104.66
2022-11-29T16:59:24.914Z,101112.97
2022-11-29T17:02:42.345Z,101117.41
2022-11-29T17:05:50.799Z,101121.47
2022-11-29T17:09:06.223Z,101126.38
2022-11-29T17:12:14.804Z,101119.91
2022-11-29T17:15:24.514Z,101123.88
2022-11-29T17:18:32.839Z,101128.44
2022-11-29T17:21:41.962Z,101130.50
2022-11-29T17:24:57.229Z,101132.16
2022-11-29T17:28:12.626Z,101124.44
2022-11-29T17:31:20.111Z,101124.44
2022-11-29T17:34:35.211Z,101134.16
2022-11-29T17:37:44.235Z,101133.72
2022-11-29T17:40:59.597Z,101133.50
2022-11-29T17:44:11.229Z,101135.37
2022-11-29T17:47:20.309Z,101112.22
2022-11-29T17:50:35.598Z,101124.38
2022-11-29T17:53:51.134Z,101135.19
2022-11-29T17:57:07.216Z,101134.59
2022-11-29T18:00:16.696Z,101133.56
2022-11-29T18:03:25.279Z,101129.25
2022-11-29T18:06:47.588Z,101130.84
2022-11-29T18:09:56.516Z,101127.63
2022-11-29T18:13:05.218Z,101114.97
2022-11-29T18:16:23.261Z,101115.50
2022-11-29T18:19:39.463Z,101120.81
2022-11-29T18:22:41.863Z,101117.12
2022-11-29T18:26:08.468Z,101108.88
2022-11-29T18:29:18.618Z,101123.41
2022-11-29T18:32:32.711Z,101130.16
2022-11-29T18:35:48.593Z,101137.28
2022-11-29T18:39:08.550Z,101134.41
2022-11-29T18:42:17.178Z,101148.25
2022-11-29T18:45:32.555Z,101136.06
2022-11-29T18:48:38.083Z,101133.53
2022-11-29T18:51:55.231Z,101133.53
2022-11-29T18:55:04.208Z,101126.25
2022-11-29T18:58:14.099Z,101141.34
2022-11-29T19:01:25.603Z,101140.97
2022-11-29T19:04:43.772Z,101123.50
2022-11-29T19:07:59.218Z,101132.81
2022-11-29T19:11:19.210Z,101131.34
2022-11-29T19:14:30.520Z,101136.06
2022-11-29T19:17:43.090Z,101135.31
2022-11-29T19:20:58.583Z,101135.22
2022-11-29T19:24:03.717Z,101145.41
2022-11-29T19:27:18.655Z,101147.50
2022-11-29T19:30:28.439Z,101145.44
2022-11-29T19:33:43.636Z,101145.44
2022-11-29T19:36:58.620Z,101141.19
2022-11-29T19:40:08.336Z,101139.56
2022-11-29T19:43:17.671Z,101139.72
2022-11-29T19:46:28.931Z,101149.31
2022-11-29T19:49:46.720Z,101152.81
2022-11-29T19:53:02.160Z,101150.75
2022-11-29T19:56:20.190Z,101148.38
2022-11-29T19:59:28.611Z,101146.75
2022-11-29T20:02:37.660Z,101144.56
2022-11-29T20:06:02.639Z,101136.44
2022-11-29T20:09:06.050Z,101145.41
2022-11-29T20:12:21.566Z,101134.44
2022-11-29T20:15:30.206Z,101134.06
2022-11-29T20:18:39.630Z,101136.56
2022-11-29T20:22:01.657Z,101130.62
2022-11-29T20:25:11.623Z,101135.09
2022-11-29T20:28:20.387Z,101131.47
2022-11-29T20:31:37.810Z,101115.22
2022-11-29T20:34:47.758Z,101128.91
2022-11-29T20:38:20.130Z,101124.44
2022-11-29T20:42:08.632Z,101128.50
2022-11-29T20:45:24.319Z,101128.31
2022-11-29T20:48:33.492Z,101133.78
2022-11-29T20:52:12.594Z,101132.16
2022-11-29T20:55:15.147Z,101128.91
2022-11-29T20:58:30.668Z,101125.50
2022-11-29T21:01:40.233Z,101126.91
2022-11-29T21:04:49.166Z,101128.31
2022-11-29T21:08:04.351Z,101118.16
2022-11-29T21:11:13.324Z,101129.97
2022-11-29T21:14:22.207Z,101126.09
2022-11-29T21:17:33.920Z,101123.69
2022-11-29T21:20:43.166Z,101128.63
2022-11-29T21:24:02.561Z,101134.75
2022-11-29T21:27:27.064Z,101136.59
2022-11-29T21:30:36.155Z,101140.44
2022-11-29T21:33:52.217Z,101130.03
2022-11-29T21:37:07.171Z,101130.97
2022-11-29T21:40:17.183Z,101133.69
2022-11-29T21:43:58.034Z,101136.75
2022-11-29T21:47:00.202Z,101139.22
2022-11-29T21:50:09.157Z,101139.22
2022-11-29T21:53:17.170Z,101140.38
2022-11-29T21:56:32.158Z,101142.16
2022-11-29T21:59:40.198Z,101136.09
2022-11-29T22:02:48.813Z,101147.69
2022-11-29T22:06:14.212Z,101134.38
2022-11-29T22:09:22.823Z,101142.66
2022-11-29T22:12:35.209Z,101138.75
2022-11-29T22:15:43.832Z,101135.69
2022-11-29T22:18:52.183Z,101133.03
2022-11-29T22:22:04.329Z,101136.69
2022-11-29T22:25:13.187Z,101136.69
2022-11-29T22:28:28.160Z,101131.84
2022-11-29T22:31:30.304Z,101133.91
2022-11-29T22:34:45.376Z,101129.56
2022-11-29T22:37:47.452Z,101129.78
2022-11-29T22:41:06.151Z,101128.31
2022-11-29T22:44:08.173Z,101124.87
2022-11-29T22:47:23.173Z,101129.56
2022-11-29T22:50:25.118Z,101119.22
2022-11-29T22:53:41.157Z,101123.91
2022-11-29T22:56:56.196Z,101112.13
2022-11-29T22:59:58.242Z,101112.72
2022-11-29T23:03:13.178Z,101108.63
2022-11-29T23:06:30.170Z,101108.56
2022-11-29T23:09:45.180Z,101111.44
2022-11-29T23:12:47.279Z,101108.13
2022-11-29T23:16:02.289Z,101105.03
2022-11-29T23:19:04.232Z,101106.97
2022-11-29T23:22:19.154Z,101106.56
2022-11-29T23:25:27.726Z,101106.19
2022-11-29T23:28:43.149Z,101107.22
2022-11-29T23:31:58.208Z,101102.72
2022-11-29T23:35:07.021Z,101097.50
2022-11-29T23:38:15.168Z,101098.28
2022-11-29T23:41:30.196Z,101107.44
2022-11-29T23:44:38.694Z,101107.69
2022-11-29T23:47:53.157Z,101107.69
2022-11-29T23:51:01.987Z,101102.13
2022-11-29T23:54:10.133Z,101105.38
2022-11-29T23:57:25.186Z,101107.38
